New Milford, CT

9:59 PM EDT on August 27, 2016 (GMT -0400)
New Milford/Sunny Valley | | Change Station

Elev 300 ft 41.56 °N, 73.42 °W | Updated 8 seconds ago

Clear
Clear
70.9 °F
Feels Like 76 °F
N
0.0
Wind Variable Wind from NE
Gusts 0.0 mph

Today
High -- | Low -- °F
--% Chance of Precip.
Yesterday
High -- | Low -- °F
Precip. -- in
Pressure 30.24 in
Visibility 10.0 miles
Clouds Clear
Heat Index 76 °F
Dew Point 55 °F
Humidity 57%
Rainfall 0.00 in
Snow Depth Not available.
6:15 AM 7:34 PM
Waning Crescent, 19% visible
METAR KDXR 280153Z 00000KT 10SM CLR 21/16 A3025 RMK AO2 SLP239 T02060156
Pressure 30.24 in
Visibility 10.0 miles
Clouds Clear
Heat Index 76 °F
Dew Point 55 °F
Humidity 57%
Rainfall 0.00 in
Snow Depth Not available.
6:15 AM 7:34 PM
Waning Crescent, 19% visible
METAR KDXR 280153Z 00000KT 10SM CLR 21/16 A3025 RMK AO2 SLP239 T02060156

10-Day Weather Forecast

Almanac

Astronomy

Aug. 27, 2016 Rise Set
Actual Time
Civil Twilight
Nautical Twilight
Astronomical Twilight
Moon
Length of Visible Light
Length of Day
Tomorrow will be .
, % of the Moon is Illuminated

Today's Extremes

State Highs State Lows

Community

WunderPhotos

Upload Photos

1,935,489 photos uploaded!

WunderBlog® & News

Nearby

Air Quality

  Air Quality AQ Index Pollutant
Not available.

Snow Depth

Station Depth Elevation

Earthquake Activity

City Distance Mag. Time & Date
Minimum magnitude displayed is 2.5.

Coastal Water Temperatures

Place Temperature

Stations

Nearby Weather Stations

Station Location Temp. Windchill Dew Point Humidity Wind Precip. Elev Updated Type
                   

Watches & Warnings

There are currently no watches in effect.